Time;durP1;ratioP1;P1;durP2;ratioP2;P2;SDS_P1;SDS_P2;PMS_P1;PMS_P2;Temp;Humidity;BMP_temperature;BMP_pressure;BME280_temperature;BME280_humidity;BME280_pressure;Samples;Min_cycle;Max_cycle;Signal;HPM_P1;HPM_P2
2021/09/01 00:00:09;;;;;;;9.80;2.30;;;;;;;;;;5095026;28;20024;-66
2021/09/01 00:02:36;;;;;;;5.97;2.30;;;;;;;;;;5091002;28;20025;-67
2021/09/01 00:05:03;;;;;;;7.93;3.37;;;;;;;;;;5089860;28;20086;-66
2021/09/01 00:07:30;;;;;;;7.60;3.50;;;;;;;;;;5089691;28;20474;-67
2021/09/01 00:09:57;;;;;;;5.33;2.70;;;;;;;;;;5089849;28;20138;-67
2021/09/01 00:12:24;;;;;;;8.83;3.23;;;;;;;;;;5092440;28;20024;-67
2021/09/01 00:14:51;;;;;;;5.57;2.70;;;;;;;;;;5094891;28;20032;-67
2021/09/01 00:17:17;;;;;;;6.63;2.70;;;;;;;;;;5094753;28;20055;-67
2021/09/01 00:19:44;;;;;;;12.77;3.10;;;;;;;;;;5094607;28;20024;-67
2021/09/01 00:22:11;;;;;;;5.70;2.60;;;;;;;;;;5094812;28;20470;-67
2021/09/01 00:24:38;;;;;;;6.73;3.07;;;;;;;;;;5077001;28;20547;-67
2021/09/01 00:27:05;;;;;;;5.73;2.47;;;;;;;;;;5069310;28;20028;-67
2021/09/01 00:29:32;;;;;;;7.93;3.80;;;;;;;;;;5069140;28;20016;-67
2021/09/01 00:31:58;;;;;;;6.07;2.87;;;;;;;;;;5069287;28;20078;-67
2021/09/01 00:34:25;;;;;;;9.60;3.37;;;;;;;;;;5070756;28;20033;-66
2021/09/01 00:36:52;;;;;;;8.83;3.00;;;;;;;;;;5079281;28;20035;-66
2021/09/01 00:39:19;;;;;;;10.63;2.80;;;;;;;;;;5093552;28;20056;-67
2021/09/01 00:41:46;;;;;;;5.50;2.80;;;;;;;;;;5094089;28;20027;-67
2021/09/01 00:44:17;;;;;;;5.80;2.57;;;;;;;;;;5094278;28;20108;-67
2021/09/01 00:46:48;;;;;;;5.70;2.30;;;;;;;;;;5092055;28;20024;-67
2021/09/01 00:49:15;;;;;;;8.03;2.40;;;;;;;;;;5089076;28;20028;-67
2021/09/01 00:51:49;;;;;;;4.57;2.50;;;;;;;;;;5088776;28;20020;-66
2021/09/01 00:54:18;;;;;;;5.45;2.50;;;;;;;;;;5088755;28;20042;-67
2021/09/01 00:56:50;;;;;;;7.50;3.43;;;;;;;;;;5090448;28;20020;-67
2021/09/01 00:59:17;;;;;;;7.57;3.50;;;;;;;;;;5093843;28;20043;-66
2021/09/01 01:01:50;;;;;;;7.57;2.70;;;;;;;;;;5093971;28;20030;-67
2021/09/01 01:04:17;;;;;;;6.67;2.53;;;;;;;;;;5092300;28;20039;-66
2021/09/01 01:06:44;;;;;;;5.30;2.67;;;;;;;;;;5093346;28;20020;-67
2021/09/01 01:09:11;;;;;;;9.30;2.50;;;;;;;;;;5091203;28;20027;-67
2021/09/01 01:11:38;;;;;;;5.23;3.07;;;;;;;;;;5072084;28;20036;-67
2021/09/01 01:14:05;;;;;;;6.13;3.20;;;;;;;;;;5068246;28;20114;-67
2021/09/01 01:16:32;;;;;;;5.63;2.63;;;;;;;;;;5068104;28;20099;-66
2021/09/01 01:19:00;;;;;;;6.53;3.43;;;;;;;;;;5069421;28;20382;-66
2021/09/01 01:21:27;;;;;;;14.37;3.30;;;;;;;;;;5073436;28;20024;-67
2021/09/01 01:23:57;;;;;;;5.50;2.67;;;;;;;;;;5072669;28;20029;-67
2021/09/01 01:26:24;;;;;;;6.40;2.80;;;;;;;;;;5073197;28;20016;-67
2021/09/01 01:28:58;;;;;;;3.20;2.37;;;;;;;;;;5073247;28;20052;-66
2021/09/01 01:31:25;;;;;;;6.07;2.60;;;;;;;;;;5071404;28;20147;-66
2021/09/01 01:33:52;;;;;;;6.07;3.27;;;;;;;;;;5067552;28;20036;-67
2021/09/01 01:36:19;;;;;;;7.03;2.60;;;;;;;;;;5068487;28;20103;-67
2021/09/01 01:38:45;;;;;;;8.50;2.50;;;;;;;;;;5088043;28;20032;-66
2021/09/01 01:41:12;;;;;;;7.60;2.17;;;;;;;;;;5088536;28;20036;-66
2021/09/01 01:43:39;;;;;;;6.03;1.60;;;;;;;;;;5093272;28;20121;-66
2021/09/01 01:46:07;;;;;;;7.87;2.00;;;;;;;;;;5091027;28;20060;-64
2021/09/01 01:48:34;;;;;;;8.13;2.00;;;;;;;;;;5073557;28;20031;-62
2021/09/01 01:51:01;;;;;;;5.43;1.60;;;;;;;;;;5071676;28;20029;-62
2021/09/01 01:53:28;;;;;;;3.93;1.50;;;;;;;;;;5071731;28;20402;-59
2021/09/01 01:55:55;;;;;;;7.87;1.50;;;;;;;;;;5067769;28;20021;-60
2021/09/01 01:58:22;;;;;;;6.30;1.50;;;;;;;;;;5066904;28;20471;-60
2021/09/01 02:00:49;;;;;;;3.57;1.20;;;;;;;;;;5067001;28;20029;-60
2021/09/01 02:03:20;;;;;;;5.53;1.30;;;;;;;;;;5073933;28;20390;-60
2021/09/01 02:05:46;;;;;;;5.00;1.53;;;;;;;;;;5071065;28;20013;-61
2021/09/01 02:08:13;;;;;;;11.50;1.73;;;;;;;;;;5070601;28;20055;-61
2021/09/01 02:10:40;;;;;;;9.60;1.80;;;;;;;;;;5072422;28;20066;-61
2021/09/01 02:13:07;;;;;;;5.70;1.50;;;;;;;;;;5078880;28;20039;-60
2021/09/01 02:15:34;;;;;;;12.03;1.77;;;;;;;;;;5092276;28;20024;-60
2021/09/01 02:18:01;;;;;;;3.73;1.70;;;;;;;;;;5087221;28;20031;-61
2021/09/01 02:20:28;;;;;;;7.10;1.73;;;;;;;;;;5087689;28;20027;-60
2021/09/01 02:22:55;;;;;;;9.43;1.77;;;;;;;;;;5069085;28;20552;-58
2021/09/01 02:25:26;;;;;;;5.70;1.80;;;;;;;;;;5067158;28;20021;-59
2021/09/01 02:27:53;;;;;;;7.07;1.37;;;;;;;;;;5076045;28;20028;-60
2021/09/01 02:30:22;;;;;;;9.77;1.67;;;;;;;;;;5092273;28;20027;-60
2021/09/01 02:32:49;;;;;;;4.47;1.20;;;;;;;;;;5092500;28;20657;-59
2021/09/01 02:35:16;;;;;;;8.53;1.77;;;;;;;;;;5091761;28;20471;-60
2021/09/01 02:37:42;;;;;;;10.83;1.57;;;;;;;;;;5092540;28;20017;-59
2021/09/01 02:40:09;;;;;;;6.13;1.50;;;;;;;;;;5067853;28;20036;-59
2021/09/01 02:42:36;;;;;;;9.40;2.17;;;;;;;;;;5066935;28;20505;-60
2021/09/01 02:45:03;;;;;;;5.50;1.60;;;;;;;;;;5074480;28;20024;-59
2021/09/01 02:47:30;;;;;;;10.07;1.87;;;;;;;;;;5087551;28;20020;-60
2021/09/01 02:49:57;;;;;;;6.77;2.43;;;;;;;;;;5090951;28;20421;-60
2021/09/01 02:52:23;;;;;;;5.30;1.50;;;;;;;;;;5090495;28;20070;-60
2021/09/01 02:54:50;;;;;;;4.40;1.63;;;;;;;;;;5091905;28;20036;-59
2021/09/01 02:57:17;;;;;;;6.67;1.70;;;;;;;;;;5092148;28;20028;-60
2021/09/01 02:59:44;;;;;;;6.90;1.47;;;;;;;;;;5088125;28;20036;-60
2021/09/01 03:02:10;;;;;;;3.97;1.13;;;;;;;;;;5089228;28;20016;-60
2021/09/01 03:04:37;;;;;;;6.30;1.43;;;;;;;;;;5091350;28;20026;-59
2021/09/01 03:07:04;;;;;;;9.23;1.60;;;;;;;;;;5091119;28;20095;-59
2021/09/01 03:09:31;;;;;;;3.17;1.10;;;;;;;;;;5091211;28;20501;-60
2021/09/01 03:11:57;;;;;;;10.90;1.80;;;;;;;;;;5092974;28;20016;-60
2021/09/01 03:14:24;;;;;;;9.47;1.60;;;;;;;;;;5076737;28;20039;-60
2021/09/01 03:16:51;;;;;;;5.37;1.50;;;;;;;;;;5075504;28;20078;-60
2021/09/01 03:19:18;;;;;;;3.80;1.63;;;;;;;;;;5075669;28;20103;-61
2021/09/01 03:21:44;;;;;;;5.77;1.50;;;;;;;;;;5075761;28;20020;-59
2021/09/01 03:24:11;;;;;;;4.17;1.70;;;;;;;;;;5072799;28;20028;-61
2021/09/01 03:26:38;;;;;;;8.57;1.80;;;;;;;;;;5070797;28;20028;-60
2021/09/01 03:29:05;;;;;;;4.20;1.17;;;;;;;;;;5070582;28;20081;-59
2021/09/01 03:31:31;;;;;;;15.23;2.80;;;;;;;;;;5070256;28;20017;-59
2021/09/01 03:33:58;;;;;;;4.97;1.50;;;;;;;;;;5071846;28;20060;-59
2021/09/01 03:36:25;;;;;;;4.23;1.73;;;;;;;;;;5078833;28;20031;-59
2021/09/01 03:38:52;;;;;;;11.60;1.40;;;;;;;;;;5078457;28;20027;-59
2021/09/01 03:41:18;;;;;;;6.93;1.57;;;;;;;;;;5074959;28;20067;-60
2021/09/01 03:43:45;;;;;;;5.70;1.77;;;;;;;;;;5087062;28;20032;-60
2021/09/01 03:46:12;;;;;;;5.13;1.50;;;;;;;;;;5087263;28;20027;-60
2021/09/01 03:48:39;;;;;;;6.17;1.60;;;;;;;;;;5070226;28;20029;-60
2021/09/01 03:51:06;;;;;;;6.67;1.40;;;;;;;;;;5070502;28;20048;-59
2021/09/01 03:53:32;;;;;;;4.77;1.50;;;;;;;;;;5090335;28;20104;-59
2021/09/01 03:55:59;;;;;;;5.07;1.30;;;;;;;;;;5073957;28;20032;-59
2021/09/01 03:58:26;;;;;;;4.97;1.53;;;;;;;;;;5074991;28;20032;-59
2021/09/01 04:00:53;;;;;;;2.97;1.60;;;;;;;;;;5074898;28;20043;-60
2021/09/01 04:03:19;;;;;;;5.67;1.63;;;;;;;;;;5074914;28;20047;-59
2021/09/01 04:05:46;;;;;;;5.20;1.37;;;;;;;;;;5074686;28;20019;-59
2021/09/01 04:08:13;;;;;;;7.37;1.87;;;;;;;;;;5073841;28;20020;-60
2021/09/01 04:10:40;;;;;;;3.77;1.63;;;;;;;;;;5069519;28;20424;-59
2021/09/01 04:13:07;;;;;;;5.80;1.60;;;;;;;;;;5059516;28;20025;-59
2021/09/01 04:15:33;;;;;;;4.80;1.60;;;;;;;;;;5049087;28;20075;-60
2021/09/01 04:18:00;;;;;;;8.13;2.10;;;;;;;;;;5082904;28;20035;-59
2021/09/01 04:20:27;;;;;;;5.90;2.00;;;;;;;;;;5094552;28;20021;-59
2021/09/01 04:22:54;;;;;;;6.27;2.00;;;;;;;;;;5094803;28;20490;-59
2021/09/01 04:25:20;;;;;;;6.47;2.90;;;;;;;;;;5094841;28;20393;-60
2021/09/01 04:27:47;;;;;;;5.07;2.03;;;;;;;;;;5094304;28;20086;-59
2021/09/01 04:30:14;;;;;;;6.97;1.50;;;;;;;;;;5094653;28;20028;-59
2021/09/01 04:32:41;;;;;;;5.17;1.73;;;;;;;;;;5089792;28;20035;-59
2021/09/01 04:35:08;;;;;;;8.07;2.40;;;;;;;;;;5089456;28;20059;-59
2021/09/01 04:37:35;;;;;;;6.43;1.97;;;;;;;;;;5089417;28;20032;-59
2021/09/01 04:40:01;;;;;;;5.70;2.40;;;;;;;;;;5089377;28;20020;-60
2021/09/01 04:42:28;;;;;;;6.93;2.30;;;;;;;;;;5077653;28;20029;-59
2021/09/01 04:44:55;;;;;;;6.03;2.30;;;;;;;;;;5074134;28;20086;-60
2021/09/01 04:47:22;;;;;;;17.60;3.77;;;;;;;;;;5073403;28;20040;-59
2021/09/01 04:49:49;;;;;;;11.50;2.93;;;;;;;;;;5093788;28;20077;-59
2021/09/01 04:52:15;;;;;;;6.27;2.40;;;;;;;;;;5092149;28;20397;-59
2021/09/01 04:54:42;;;;;;;10.00;2.30;;;;;;;;;;5090269;28;20032;-60
2021/09/01 04:57:09;;;;;;;8.57;2.47;;;;;;;;;;5076711;28;20111;-59
2021/09/01 04:59:36;;;;;;;15.10;2.80;;;;;;;;;;5068352;28;20020;-59
2021/09/01 05:02:03;;;;;;;9.77;2.57;;;;;;;;;;5068655;28;20104;-60
2021/09/01 05:04:29;;;;;;;11.43;3.13;;;;;;;;;;5071532;28;20025;-60
2021/09/01 05:06:56;;;;;;;19.33;3.00;;;;;;;;;;5078067;28;20123;-62
2021/09/01 05:09:23;;;;;;;4.13;2.17;;;;;;;;;;5056604;28;20025;-61
2021/09/01 05:11:50;;;;;;;4.27;2.20;;;;;;;;;;5071154;28;20517;-61
2021/09/01 05:14:17;;;;;;;10.37;2.77;;;;;;;;;;5061042;28;20083;-60
2021/09/01 05:16:44;;;;;;;4.63;2.10;;;;;;;;;;5069202;28;20094;-61
2021/09/01 05:19:11;;;;;;;5.77;2.47;;;;;;;;;;5062985;28;20021;-60
2021/09/01 05:21:40;;;;;;;9.63;2.70;;;;;;;;;;5048281;28;20082;-60
2021/09/01 05:24:09;;;;;;;8.57;2.43;;;;;;;;;;5059388;28;20060;-61
2021/09/01 05:26:36;;;;;;;12.87;3.10;;;;;;;;;;5071240;28;20486;-61
2021/09/01 05:29:04;;;;;;;10.73;2.93;;;;;;;;;;5073358;28;20065;-61
2021/09/01 05:31:32;;;;;;;6.03;2.60;;;;;;;;;;5074153;28;20029;-61
2021/09/01 05:34:02;;;;;;;5.70;2.80;;;;;;;;;;5072707;28;20032;-61
2021/09/01 05:36:29;;;;;;;5.60;2.83;;;;;;;;;;5072851;28;20025;-61
2021/09/01 05:38:57;;;;;;;7.63;3.60;;;;;;;;;;5070636;28;20494;-61
2021/09/01 05:41:28;;;;;;;6.80;3.03;;;;;;;;;;5078050;28;20038;-61
2021/09/01 05:43:55;;;;;;;4.97;2.80;;;;;;;;;;5088113;28;20028;-60
2021/09/01 05:46:22;;;;;;;6.90;2.70;;;;;;;;;;5078224;28;20125;-61
2021/09/01 05:48:50;;;;;;;7.47;2.47;;;;;;;;;;5075028;28;20024;-60
2021/09/01 05:51:16;;;;;;;5.60;2.47;;;;;;;;;;5092822;28;20020;-61
2021/09/01 05:53:43;;;;;;;6.37;2.83;;;;;;;;;;5092921;28;20071;-61
2021/09/01 05:56:10;;;;;;;6.03;2.50;;;;;;;;;;5092718;28;20024;-61
2021/09/01 05:58:38;;;;;;;8.43;3.47;;;;;;;;;;5078928;28;20028;-61
2021/09/01 06:01:07;;;;;;;7.77;2.90;;;;;;;;;;5071220;28;20229;-61
2021/09/01 06:03:34;;;;;;;11.07;3.70;;;;;;;;;;5067663;28;20459;-61
2021/09/01 06:06:02;;;;;;;8.40;2.63;;;;;;;;;;5067545;28;20020;-61
2021/09/01 06:08:32;;;;;;;8.03;2.80;;;;;;;;;;5067408;28;20498;-61
2021/09/01 06:11:00;;;;;;;6.93;3.23;;;;;;;;;;5068257;28;20075;-61
2021/09/01 06:13:27;;;;;;;16.17;4.37;;;;;;;;;;5071931;28;20044;-61
2021/09/01 06:15:56;;;;;;;6.43;3.10;;;;;;;;;;5072192;28;20024;-62
2021/09/01 06:18:23;;;;;;;9.00;4.20;;;;;;;;;;5072342;28;20032;-61
2021/09/01 06:20:50;;;;;;;14.93;3.10;;;;;;;;;;5072392;28;20032;-61
2021/09/01 06:23:17;;;;;;;9.53;3.00;;;;;;;;;;5071343;28;20553;-61
2021/09/01 06:25:43;;;;;;;7.17;3.27;;;;;;;;;;5067274;28;20025;-61
2021/09/01 06:28:10;;;;;;;7.73;2.70;;;;;;;;;;5067209;28;20028;-62
2021/09/01 06:30:37;;;;;;;6.67;3.00;;;;;;;;;;5067169;28;20024;-62
2021/09/01 06:33:04;;;;;;;8.07;2.67;;;;;;;;;;5066863;28;20025;-61
2021/09/01 06:35:31;;;;;;;5.90;2.60;;;;;;;;;;5072265;28;20132;-61
2021/09/01 06:37:58;;;;;;;12.67;3.20;;;;;;;;;;5071663;28;20017;-61
2021/09/01 06:40:24;;;;;;;7.40;2.73;;;;;;;;;;5072212;28;20032;-61
2021/09/01 06:42:51;;;;;;;8.27;3.07;;;;;;;;;;5072076;28;20033;-61
2021/09/01 06:45:18;;;;;;;6.30;2.80;;;;;;;;;;5072093;28;20059;-61
2021/09/01 06:47:46;;;;;;;5.67;2.47;;;;;;;;;;5085236;28;20483;-61
2021/09/01 06:50:14;;;;;;;5.77;2.53;;;;;;;;;;5086934;28;20032;-61
2021/09/01 06:52:42;;;;;;;9.43;3.30;;;;;;;;;;5087218;28;20082;-61
2021/09/01 06:55:09;;;;;;;9.03;2.73;;;;;;;;;;5087179;28;20032;-61
2021/09/01 06:57:36;;;;;;;6.97;2.53;;;;;;;;;;5091687;28;20089;-61
2021/09/01 07:00:06;;;;;;;7.57;2.50;;;;;;;;;;5091946;28;20058;-61
2021/09/01 07:02:32;;;;;;;5.13;2.17;;;;;;;;;;5082107;28;20090;-61
2021/09/01 07:05:00;;;;;;;5.00;2.30;;;;;;;;;;5072640;28;20024;-61
2021/09/01 07:07:26;;;;;;;6.00;2.27;;;;;;;;;;5071410;28;20020;-62
2021/09/01 07:09:55;;;;;;;8.10;3.73;;;;;;;;;;5067430;28;20499;-61
2021/09/01 07:12:22;;;;;;;7.27;2.60;;;;;;;;;;5066683;28;20016;-61
2021/09/01 07:14:49;;;;;;;4.30;2.40;;;;;;;;;;5066916;28;20064;-61
2021/09/01 07:17:16;;;;;;;5.60;2.20;;;;;;;;;;5067000;28;20028;-61
2021/09/01 07:19:43;;;;;;;5.87;2.50;;;;;;;;;;5070638;28;20097;-61
2021/09/01 07:22:10;;;;;;;7.47;3.43;;;;;;;;;;5071659;28;20024;-61
2021/09/01 07:24:37;;;;;;;6.83;2.90;;;;;;;;;;5071238;28;20024;-61
2021/09/01 07:27:04;;;;;;;7.63;2.60;;;;;;;;;;5071652;28;20024;-61
2021/09/01 07:29:31;;;;;;;6.90;2.63;;;;;;;;;;5071806;28;20032;-61
2021/09/01 07:31:58;;;;;;;5.97;3.10;;;;;;;;;;5068134;28;20142;-61
2021/09/01 07:34:25;;;;;;;9.90;2.60;;;;;;;;;;5074972;28;20059;-61
2021/09/01 07:36:51;;;;;;;9.47;2.40;;;;;;;;;;5087130;28;20043;-61
2021/09/01 07:39:18;;;;;;;8.13;2.57;;;;;;;;;;5086921;28;20028;-61
2021/09/01 07:41:45;;;;;;;10.60;2.40;;;;;;;;;;5089364;28;20035;-62
2021/09/01 07:44:12;;;;;;;4.47;2.40;;;;;;;;;;5091473;28;20482;-61
2021/09/01 07:46:39;;;;;;;4.93;2.20;;;;;;;;;;5079546;28;20029;-61
2021/09/01 07:49:06;;;;;;;6.07;2.17;;;;;;;;;;5072146;28;20020;-61
2021/09/01 07:51:32;;;;;;;4.43;2.20;;;;;;;;;;5075209;28;20099;-61
2021/09/01 07:53:59;;;;;;;4.77;2.17;;;;;;;;;;5072247;28;20047;-61
2021/09/01 07:56:26;;;;;;;6.80;2.17;;;;;;;;;;5070088;28;20039;-61
2021/09/01 07:58:53;;;;;;;6.27;2.27;;;;;;;;;;5070133;28;20036;-61
2021/09/01 08:01:19;;;;;;;7.57;2.67;;;;;;;;;;5080927;28;20111;-61
2021/09/01 08:03:46;;;;;;;4.67;2.40;;;;;;;;;;5091901;28;20031;-61
2021/09/01 08:06:13;;;;;;;3.93;1.97;;;;;;;;;;5094923;28;20032;-61
2021/09/01 08:08:40;;;;;;;4.37;2.07;;;;;;;;;;5095118;28;20020;-61
2021/09/01 08:11:06;;;;;;;5.53;2.43;;;;;;;;;;5095149;28;20020;-61
2021/09/01 08:13:33;;;;;;;4.23;2.00;;;;;;;;;;5081292;28;20028;-61
2021/09/01 08:16:00;;;;;;;6.13;2.10;;;;;;;;;;5072738;28;20028;-61
2021/09/01 08:18:27;;;;;;;9.50;1.90;;;;;;;;;;5069342;28;20020;-61
2021/09/01 08:20:53;;;;;;;8.77;2.10;;;;;;;;;;5069611;28;20027;-61
2021/09/01 08:23:20;;;;;;;10.90;3.10;;;;;;;;;;5069897;28;20020;-61
2021/09/01 08:25:47;;;;;;;7.37;2.43;;;;;;;;;;5070454;28;20031;-61
2021/09/01 08:28:14;;;;;;;9.20;2.17;;;;;;;;;;5076194;28;20020;-61
2021/09/01 08:30:41;;;;;;;7.30;2.40;;;;;;;;;;5094683;28;20020;-61
2021/09/01 08:33:07;;;;;;;8.43;2.43;;;;;;;;;;5094554;28;20494;-61
2021/09/01 08:35:34;;;;;;;7.47;3.17;;;;;;;;;;5092750;28;20060;-61
2021/09/01 08:38:01;;;;;;;4.60;2.50;;;;;;;;;;5093114;28;20020;-61
2021/09/01 08:40:28;;;;;;;12.40;2.67;;;;;;;;;;5089646;28;20028;-61
2021/09/01 08:42:55;;;;;;;9.40;2.90;;;;;;;;;;5073981;28;20083;-62
2021/09/01 08:45:22;;;;;;;4.57;2.33;;;;;;;;;;5069001;28;20021;-61
2021/09/01 08:47:49;;;;;;;5.87;2.37;;;;;;;;;;5069044;28;20431;-61
2021/09/01 08:50:15;;;;;;;10.70;2.57;;;;;;;;;;5073836;28;20024;-61
2021/09/01 08:52:42;;;;;;;8.83;2.40;;;;;;;;;;5074051;28;20025;-61
2021/09/01 08:55:10;;;;;;;5.67;2.57;;;;;;;;;;5073367;28;20398;-61
2021/09/01 08:57:37;;;;;;;6.20;2.20;;;;;;;;;;5073928;28;20475;-62
2021/09/01 09:00:05;;;;;;;5.50;3.30;;;;;;;;;;5073100;28;20032;-61
2021/09/01 09:02:32;;;;;;;6.20;1.90;;;;;;;;;;5068610;28;20100;-62
2021/09/01 09:04:59;;;;;;;5.60;1.80;;;;;;;;;;5068726;28;20111;-61
2021/09/01 09:07:26;;;;;;;6.10;2.10;;;;;;;;;;5068627;28;20027;-61
2021/09/01 09:09:53;;;;;;;7.77;2.00;;;;;;;;;;5087065;28;20028;-61
2021/09/01 09:12:29;;;;;;;8.10;2.07;;;;;;;;;;5089069;28;20024;-62
2021/09/01 09:14:56;;;;;;;3.73;2.10;;;;;;;;;;5075600;28;20137;-61
2021/09/01 09:17:23;;;;;;;12.77;2.70;;;;;;;;;;5073385;28;20024;-61
2021/09/01 09:19:49;;;;;;;7.00;3.33;;;;;;;;;;5073341;28;20087;-61
2021/09/01 09:22:22;;;;;;;6.23;3.00;;;;;;;;;;5073369;28;20502;-61
2021/09/01 09:25:04;;;;;;;5.43;3.03;;;;;;;;;;5068537;28;20032;-61
2021/09/01 09:27:43;;;;;;;10.80;3.67;;;;;;;;;;5069757;28;20427;-62
2021/09/01 09:30:22;;;;;;;6.80;3.07;;;;;;;;;;5088243;28;20031;-61
2021/09/01 09:33:00;;;;;;;6.17;3.53;;;;;;;;;;5088494;28;20016;-61
2021/09/01 09:35:27;;;;;;;6.37;2.90;;;;;;;;;;5093238;28;20028;-61
2021/09/01 09:38:05;;;;;;;5.60;3.30;;;;;;;;;;5093260;28;20066;-61
2021/09/01 09:40:32;;;;;;;5.47;2.83;;;;;;;;;;5093382;28;20119;-61
2021/09/01 09:43:12;;;;;;;6.73;3.47;;;;;;;;;;5087080;28;20375;-61
2021/09/01 09:45:39;;;;;;;7.67;3.20;;;;;;;;;;5070907;28;20017;-61
2021/09/01 09:48:06;;;;;;;8.70;3.80;;;;;;;;;;5067889;28;20021;-61
2021/09/01 09:50:33;;;;;;;9.23;3.03;;;;;;;;;;5067930;28;20040;-61
2021/09/01 09:53:00;;;;;;;7.03;3.00;;;;;;;;;;5067648;28;20023;-61
2021/09/01 09:55:26;;;;;;;7.70;2.77;;;;;;;;;;5068046;28;20166;-61
2021/09/01 09:57:55;;;;;;;7.00;2.93;;;;;;;;;;5072669;28;20471;-61
2021/09/01 10:00:23;;;;;;;6.63;2.80;;;;;;;;;;5072618;28;20380;-61
2021/09/01 10:02:50;;;;;;;7.47;3.33;;;;;;;;;;5072380;28;20017;-61
2021/09/01 10:05:20;;;;;;;9.57;3.10;;;;;;;;;;5072656;28;20016;-61
2021/09/01 10:07:47;;;;;;;6.33;2.97;;;;;;;;;;5071737;28;20029;-61
2021/09/01 10:10:14;;;;;;;6.87;3.53;;;;;;;;;;5078738;28;20139;-61
2021/09/01 10:12:42;;;;;;;8.57;3.73;;;;;;;;;;5080748;28;20512;-61
2021/09/01 10:15:19;;;;;;;7.87;3.63;;;;;;;;;;5067300;28;20082;-62
2021/09/01 10:17:47;;;;;;;7.37;3.43;;;;;;;;;;5067740;28;20037;-61
2021/09/01 10:20:20;;;;;;;4.67;2.60;;;;;;;;;;5072378;28;20402;-61
2021/09/01 10:22:59;;;;;;;7.43;3.07;;;;;;;;;;5072415;28;20032;-61
2021/09/01 10:25:33;;;;;;;6.17;3.50;;;;;;;;;;5072185;28;20462;-61
2021/09/01 10:28:32;;;;;;;8.02;3.42;;;;;;;;;;5071714;28;20029;-62
2021/09/01 10:31:14;;;;;;;7.53;3.33;;;;;;;;;;5026077;28;20028;-61
2021/09/01 10:33:42;;;;;;;7.60;3.77;;;;;;;;;;5067133;28;20052;-61
2021/09/01 10:36:24;;;;;;;9.97;3.63;;;;;;;;;;5066930;28;20025;-62
2021/09/01 10:38:51;;;;;;;13.00;4.00;;;;;;;;;;5082583;28;20060;-61
2021/09/01 10:41:44;;;;;;;8.03;3.23;;;;;;;;;;5089944;28;20043;-61
2021/09/01 10:44:14;;;;;;;7.03;3.63;;;;;;;;;;5088522;28;20043;-61
2021/09/01 10:46:53;;;;;;;5.63;3.20;;;;;;;;;;5079877;28;20420;-61
2021/09/01 10:49:27;;;;;;;8.03;3.30;;;;;;;;;;5072217;28;20092;-61
2021/09/01 10:51:55;;;;;;;9.43;3.23;;;;;;;;;;5072280;28;20027;-61
2021/09/01 10:54:34;;;;;;;7.40;3.50;;;;;;;;;;5067125;28;20288;-61
2021/09/01 10:57:05;;;;;;;14.13;3.87;;;;;;;;;;5067138;28;20023;-62
2021/09/01 10:59:37;;;;;;;7.77;3.63;;;;;;;;;;5067167;28;20044;-61
2021/09/01 11:02:12;;;;;;;5.50;2.73;;;;;;;;;;5066851;28;20029;-61
2021/09/01 11:05:01;;;;;;;8.60;3.17;;;;;;;;;;5071260;28;20099;-61
2021/09/01 11:07:27;;;;;;;6.97;3.00;;;;;;;;;;5089638;28;20032;-62
2021/09/01 11:09:58;;;;;;;9.57;3.13;;;;;;;;;;5092152;28;20108;-61
2021/09/01 11:12:25;;;;;;;9.60;2.87;;;;;;;;;;5088070;28;20070;-62
2021/09/01 11:14:54;;;;;;;6.67;3.03;;;;;;;;;;5071394;28;20039;-61
2021/09/01 11:17:22;;;;;;;5.47;2.80;;;;;;;;;;5066963;28;20027;-61
2021/09/01 11:19:52;;;;;;;8.20;3.03;;;;;;;;;;5066954;28;20021;-61
2021/09/01 11:22:21;;;;;;;7.40;3.10;;;;;;;;;;5066702;28;20554;-61
2021/09/01 11:24:55;;;;;;;6.77;2.53;;;;;;;;;;5070315;28;20049;-61
2021/09/01 11:27:23;;;;;;;4.25;2.60;;;;;;;;;;5075677;28;20479;-61
2021/09/01 11:29:50;;;;;;;7.50;2.90;;;;;;;;;;5088817;28;20035;-62
2021/09/01 11:32:18;;;;;;;6.67;3.17;;;;;;;;;;5095516;28;20028;-61
2021/09/01 11:34:45;;;;;;;5.10;2.83;;;;;;;;;;5095594;28;20582;-62
2021/09/01 11:37:13;;;;;;;7.93;3.60;;;;;;;;;;5096141;28;20504;-61
2021/09/01 11:39:41;;;;;;;6.30;3.47;;;;;;;;;;5090495;28;20035;-62
2021/09/01 11:42:08;;;;;;;6.77;2.97;;;;;;;;;;5090681;28;20020;-61
2021/09/01 11:44:35;;;;;;;4.77;2.13;;;;;;;;;;5078519;28;20097;-62
2021/09/01 11:47:02;;;;;;;9.53;1.87;;;;;;;;;;5070102;28;20035;-62
2021/09/01 11:49:29;;;;;;;5.57;2.17;;;;;;;;;;5074189;28;20463;-61
2021/09/01 11:51:56;;;;;;;4.80;2.10;;;;;;;;;;5074858;28;20028;-62
2021/09/01 11:54:22;;;;;;;5.00;2.10;;;;;;;;;;5074950;28;20133;-61
2021/09/01 11:56:49;;;;;;;8.57;2.27;;;;;;;;;;5075104;28;20035;-61
2021/09/01 11:59:16;;;;;;;7.53;2.80;;;;;;;;;;5083722;28;20020;-61
2021/09/01 12:01:53;;;;;;;4.57;2.03;;;;;;;;;;5090859;28;20024;-61
2021/09/01 12:04:21;;;;;;;5.57;2.23;;;;;;;;;;5090029;28;20104;-62
2021/09/01 12:06:52;;;;;;;3.33;1.90;;;;;;;;;;5090014;28;20024;-62
2021/09/01 12:09:20;;;;;;;5.20;2.00;;;;;;;;;;5089964;28;20035;-61
2021/09/01 12:11:53;;;;;;;5.67;2.03;;;;;;;;;;5094173;28;20105;-62
2021/09/01 12:14:23;;;;;;;6.73;2.03;;;;;;;;;;5083866;28;20597;-61
2021/09/01 12:16:50;;;;;;;8.50;2.43;;;;;;;;;;5094927;28;20043;-61
2021/09/01 12:19:18;;;;;;;4.77;2.17;;;;;;;;;;5094392;28;20024;-61
2021/09/01 12:21:46;;;;;;;6.97;2.60;;;;;;;;;;5095218;28;20024;-61
2021/09/01 12:24:13;;;;;;;4.27;2.20;;;;;;;;;;5090152;28;20107;-62
2021/09/01 12:27:09;;;;;;;4.60;2.30;;;;;;;;;;5089722;28;20475;-61
2021/09/01 12:29:38;;;;;;;5.20;2.40;;;;;;;;;;5059973;28;20500;-62
2021/09/01 12:32:06;;;;;;;7.90;2.70;;;;;;;;;;5069347;28;20418;-61
2021/09/01 12:34:38;;;;;;;11.93;2.40;;;;;;;;;;5073330;28;20025;-61
2021/09/01 12:37:08;;;;;;;3.60;1.93;;;;;;;;;;5074081;28;20032;-61
2021/09/01 12:39:46;;;;;;;5.93;2.20;;;;;;;;;;5074255;28;20051;-61
2021/09/01 12:42:21;;;;;;;3.50;1.83;;;;;;;;;;5073648;28;20467;-62
2021/09/01 12:44:49;;;;;;;5.43;2.67;;;;;;;;;;5073340;28;20036;-61
2021/09/01 12:47:16;;;;;;;8.87;2.40;;;;;;;;;;5069033;28;20027;-62
2021/09/01 12:49:47;;;;;;;7.23;2.10;;;;;;;;;;5069242;28;20055;-61
2021/09/01 12:52:15;;;;;;;7.80;1.73;;;;;;;;;;5068855;28;20107;-61
2021/09/01 12:54:42;;;;;;;5.37;1.97;;;;;;;;;;5068810;28;20080;-62
2021/09/01 12:57:10;;;;;;;5.17;1.80;;;;;;;;;;5093734;28;20067;-61
2021/09/01 12:59:37;;;;;;;5.50;2.00;;;;;;;;;;5094006;28;20427;-61
2021/09/01 13:02:04;;;;;;;4.20;2.00;;;;;;;;;;5093823;28;20028;-61
2021/09/01 13:04:31;;;;;;;4.37;2.30;;;;;;;;;;5094217;28;20466;-61
2021/09/01 13:06:58;;;;;;;3.60;1.70;;;;;;;;;;5094027;28;20391;-61
2021/09/01 13:09:25;;;;;;;5.93;2.43;;;;;;;;;;5088838;28;20421;-62
2021/09/01 13:11:52;;;;;;;7.23;2.37;;;;;;;;;;5088803;28;20372;-61
2021/09/01 13:14:19;;;;;;;8.67;3.77;;;;;;;;;;5068188;28;20135;-62
2021/09/01 13:16:46;;;;;;;5.53;2.97;;;;;;;;;;5068551;28;20039;-61
2021/09/01 13:19:13;;;;;;;8.93;3.37;;;;;;;;;;5072397;28;20032;-61
2021/09/01 13:21:40;;;;;;;7.23;2.93;;;;;;;;;;5073495;28;20099;-61
2021/09/01 13:24:07;;;;;;;8.70;3.10;;;;;;;;;;5079121;28;20490;-61
2021/09/01 13:26:34;;;;;;;5.30;2.50;;;;;;;;;;5093625;28;20146;-61
2021/09/01 13:29:01;;;;;;;8.23;3.30;;;;;;;;;;5093463;28;20073;-61
2021/09/01 13:31:31;;;;;;;6.40;2.97;;;;;;;;;;5088923;28;20383;-62
2021/09/01 13:33:58;;;;;;;5.57;2.93;;;;;;;;;;5088464;28;20064;-61
2021/09/01 13:36:25;;;;;;;6.80;2.93;;;;;;;;;;5088330;28;20479;-61
2021/09/01 13:38:51;;;;;;;6.40;2.83;;;;;;;;;;5088400;28;20708;-61
2021/09/01 13:41:19;;;;;;;9.20;2.93;;;;;;;;;;5091755;28;21259;-61
2021/09/01 13:43:46;;;;;;;10.07;3.70;;;;;;;;;;5093119;28;20111;-61
2021/09/01 13:46:13;;;;;;;7.60;3.67;;;;;;;;;;5084309;28;20117;-61
2021/09/01 13:48:41;;;;;;;10.13;3.83;;;;;;;;;;5072693;28;20028;-61
2021/09/01 13:51:08;;;;;;;8.27;3.43;;;;;;;;;;5072906;28;20082;-62
2021/09/01 13:53:36;;;;;;;8.20;3.47;;;;;;;;;;5086050;28;20039;-61
2021/09/01 13:56:05;;;;;;;10.53;4.10;;;;;;;;;;5087997;28;20020;-61
2021/09/01 13:58:32;;;;;;;12.97;4.47;;;;;;;;;;5087957;28;20020;-61
2021/09/01 14:00:59;;;;;;;8.57;4.27;;;;;;;;;;5086327;28;20028;-61
2021/09/01 14:03:31;;;;;;;18.17;4.40;;;;;;;;;;5090537;28;20028;-61
2021/09/01 14:05:58;;;;;;;11.30;4.23;;;;;;;;;;5092486;28;20024;-61
2021/09/01 14:08:25;;;;;;;7.93;4.10;;;;;;;;;;5092936;28;20020;-61
2021/09/01 14:10:52;;;;;;;6.97;3.50;;;;;;;;;;5084864;28;20024;-61
2021/09/01 14:13:19;;;;;;;8.33;3.77;;;;;;;;;;5072455;28;20021;-61
2021/09/01 14:15:45;;;;;;;6.93;3.80;;;;;;;;;;5069502;28;20479;-61
2021/09/01 14:18:12;;;;;;;9.70;3.90;;;;;;;;;;5067413;28;20399;-61
2021/09/01 14:20:43;;;;;;;9.90;4.30;;;;;;;;;;5067470;28;20031;-62
2021/09/01 14:23:09;;;;;;;14.30;4.60;;;;;;;;;;5067156;28;20029;-61
2021/09/01 14:25:36;;;;;;;12.77;5.17;;;;;;;;;;5069638;28;20020;-61
2021/09/01 14:28:05;;;;;;;12.00;5.27;;;;;;;;;;5071810;28;20080;-61
2021/09/01 14:30:32;;;;;;;8.57;4.40;;;;;;;;;;5072212;28;20058;-61
2021/09/01 14:32:59;;;;;;;8.83;4.90;;;;;;;;;;5072080;28;20471;-61
2021/09/01 14:35:26;;;;;;;12.00;5.60;;;;;;;;;;5072270;28;20033;-61
2021/09/01 14:37:53;;;;;;;16.07;6.00;;;;;;;;;;5069883;28;20020;-61
2021/09/01 14:40:20;;;;;;;10.53;5.93;;;;;;;;;;5066990;28;20111;-61
2021/09/01 14:42:46;;;;;;;10.43;5.20;;;;;;;;;;5076062;28;20026;-61
2021/09/01 14:45:13;;;;;;;9.87;5.50;;;;;;;;;;5087033;28;20047;-61